createdAt,value
2018-10-03T00:00:34.926Z,101584.34
2018-10-03T00:01:40.194Z,101582.05
2018-10-03T00:02:44.794Z,101586.76
2018-10-03T00:03:50.263Z,101588.80
2018-10-03T00:04:54.342Z,101592.70
2018-10-03T00:05:58.685Z,101596.22
2018-10-03T00:07:02.787Z,101602.38
2018-10-03T00:08:06.956Z,101610.75
2018-10-03T00:09:11.427Z,101610.64
2018-10-03T00:10:16.512Z,101607.13
2018-10-03T00:11:20.789Z,101601.78
2018-10-03T00:12:24.904Z,101610.50
2018-10-03T00:13:29.074Z,101613.55
2018-10-03T00:14:33.268Z,101611.35
2018-10-03T00:15:37.391Z,101614.50
2018-10-03T00:16:41.820Z,101614.64
2018-10-03T00:17:45.983Z,101605.78
2018-10-03T00:18:50.229Z,101608.45
2018-10-03T00:19:54.346Z,101614.75
2018-10-03T00:20:58.514Z,101614.75
2018-10-03T00:22:02.882Z,101611.60
2018-10-03T00:23:07.444Z,101612.70
2018-10-03T00:24:13.822Z,101614.05
2018-10-03T00:25:18.947Z,101607.96
2018-10-03T00:26:24.149Z,101613.81
2018-10-03T00:27:28.241Z,101615.63
2018-10-03T00:28:32.379Z,101617.44
2018-10-03T00:29:36.504Z,101617.07
2018-10-03T00:30:40.629Z,101626.30
2018-10-03T00:31:44.861Z,101620.97
2018-10-03T00:32:49.039Z,101626.64
2018-10-03T00:33:53.280Z,101631.02
2018-10-03T00:34:57.433Z,101628.83
2018-10-03T00:36:01.721Z,101626.05
2018-10-03T00:37:06.160Z,101626.91
2018-10-03T00:38:10.493Z,101629.57
2018-10-03T00:39:15.248Z,101625.56
2018-10-03T00:40:19.481Z,101635.39
2018-10-03T00:41:23.653Z,101633.58
2018-10-03T00:42:27.863Z,101631.72
2018-10-03T00:43:32.847Z,101645.92
2018-10-03T00:44:36.948Z,101638.77
2018-10-03T00:45:41.205Z,101642.18
2018-10-03T00:46:45.356Z,101644.00
2018-10-03T00:47:49.518Z,101647.86
2018-10-03T00:48:53.729Z,101650.90
2018-10-03T00:49:57.957Z,101651.61
2018-10-03T00:51:02.454Z,101654.66
2018-10-03T00:52:06.618Z,101654.17
2018-10-03T00:53:10.717Z,101647.02
2018-10-03T00:54:14.931Z,101655.50
2018-10-03T00:55:19.246Z,101652.70
2018-10-03T00:56:24.650Z,101659.51
2018-10-03T00:57:28.846Z,101664.70
2018-10-03T00:58:33.469Z,101651.88
2018-10-03T00:59:37.789Z,101652.36
2018-10-03T01:00:41.969Z,101654.55
2018-10-03T01:01:47.128Z,101651.50
2018-10-03T01:02:51.865Z,101656.95
2018-10-03T01:03:57.025Z,101663.14
2018-10-03T01:05:01.833Z,101658.66
2018-10-03T01:06:06.012Z,101652.95
2018-10-03T01:07:10.125Z,101662.55
2018-10-03T01:08:14.353Z,101655.98
2018-10-03T01:09:21.678Z,101651.02
2018-10-03T01:10:25.776Z,101652.36
2018-10-03T01:11:30.725Z,101651.50
2018-10-03T01:12:34.837Z,101649.80
2018-10-03T01:13:38.932Z,101655.98
2018-10-03T01:14:43.199Z,101659.28
2018-10-03T01:15:48.573Z,101668.25
2018-10-03T01:16:52.854Z,101660.95
2018-10-03T01:17:57.108Z,101656.09
2018-10-03T01:19:01.335Z,101653.94
2018-10-03T01:20:06.445Z,101661.58
2018-10-03T01:21:10.501Z,101662.20
2018-10-03T01:22:14.707Z,101662.30
2018-10-03T01:23:19.641Z,101673.83
2018-10-03T01:24:23.663Z,101670.08
2018-10-03T01:25:29.405Z,101671.75
2018-10-03T01:26:34.095Z,101668.59
2018-10-03T01:27:38.333Z,101665.45
2018-10-03T01:28:43.470Z,101664.59
2018-10-03T01:29:47.716Z,101658.07
2018-10-03T01:30:54.167Z,101666.55
2018-10-03T01:31:58.269Z,101672.00
2018-10-03T01:33:02.373Z,101670.32
2018-10-03T01:34:06.672Z,101676.14
2018-10-03T01:35:11.668Z,101675.16
2018-10-03T01:36:15.840Z,101672.16
2018-10-03T01:37:20.813Z,101670.92
2018-10-03T01:38:25.540Z,101666.55
2018-10-03T01:39:29.792Z,101668.88
2018-10-03T01:40:33.864Z,101670.31
2018-10-03T01:41:38.598Z,101668.02
2018-10-03T01:42:42.865Z,101666.31
2018-10-03T01:43:47.783Z,101668.13
2018-10-03T01:44:52.642Z,101665.23
2018-10-03T01:45:58.313Z,101664.86
2018-10-03T01:47:03.284Z,101662.43
2018-10-03T01:48:07.484Z,101666.20
2018-10-03T01:49:11.670Z,101668.63
2018-10-03T01:50:15.818Z,101664.39
2018-10-03T01:51:19.999Z,101671.54
2018-10-03T01:52:24.080Z,101664.13
2018-10-03T01:53:28.213Z,101665.59
2018-10-03T01:54:32.339Z,101670.08
2018-10-03T01:55:36.388Z,101663.03
2018-10-03T01:56:41.024Z,101669.33
2018-10-03T01:57:45.113Z,101664.95
2018-10-03T01:58:49.264Z,101669.44
2018-10-03T02:00:01.259Z,101675.73
2018-10-03T02:01:05.392Z,101681.20
2018-10-03T02:02:10.222Z,101678.53
2018-10-03T02:03:14.926Z,101683.11
2018-10-03T02:04:19.028Z,101681.78
2018-10-03T02:05:23.231Z,101691.86
2018-10-03T02:06:27.309Z,101692.23
2018-10-03T02:07:31.532Z,101689.06
2018-10-03T02:08:36.361Z,101685.44
2018-10-03T02:09:40.544Z,101688.00
2018-10-03T02:10:45.906Z,101686.18
2018-10-03T02:11:50.082Z,101687.41
2018-10-03T02:12:54.305Z,101682.45
2018-10-03T02:13:58.464Z,101691.65
2018-10-03T02:15:03.883Z,101689.83
2018-10-03T02:16:07.991Z,101682.55
2018-10-03T02:17:12.985Z,101692.16
2018-10-03T02:18:17.057Z,101686.68
2018-10-03T02:19:21.134Z,101681.72
2018-10-03T02:20:25.367Z,101681.58
2018-10-03T02:21:31.564Z,101682.81
2018-10-03T02:22:35.785Z,101690.33
2018-10-03T02:23:40.037Z,101684.14
2018-10-03T02:24:44.209Z,101692.52
2018-10-03T02:25:48.395Z,101692.86
2018-10-03T02:26:52.656Z,101693.23
2018-10-03T02:27:56.802Z,101693.72
2018-10-03T02:29:02.198Z,101698.09
2018-10-03T02:30:08.204Z,101694.47
2018-10-03T02:31:12.273Z,101694.95
2018-10-03T02:32:17.017Z,101697.95
2018-10-03T02:33:21.287Z,101699.80
2018-10-03T02:34:25.542Z,101700.63
2018-10-03T02:35:29.632Z,101703.28
2018-10-03T02:36:33.849Z,101696.99
2018-10-03T02:37:38.021Z,101703.19
2018-10-03T02:38:42.475Z,101701.74
2018-10-03T02:39:48.816Z,101703.08
2018-10-03T02:40:53.035Z,101718.57
2018-10-03T02:41:57.357Z,101714.09
2018-10-03T02:43:01.463Z,101709.23
2018-10-03T02:44:05.773Z,101709.75
2018-10-03T02:45:09.911Z,101710.56
2018-10-03T02:46:14.105Z,101713.23
2018-10-03T02:47:18.289Z,101712.76
2018-10-03T02:48:23.057Z,101712.76
2018-10-03T02:49:27.592Z,101719.42
2018-10-03T02:50:31.701Z,101724.28
2018-10-03T02:51:36.356Z,101722.09
2018-10-03T02:52:40.801Z,101720.28
2018-10-03T02:53:45.034Z,101716.28
2018-10-03T02:54:49.152Z,101723.80
2018-10-03T02:55:53.309Z,101721.51
2018-10-03T02:56:57.931Z,101717.61
2018-10-03T02:58:02.333Z,101723.32
2018-10-03T02:59:06.787Z,101717.13
2018-10-03T03:00:11.082Z,101719.42
2018-10-03T03:01:16.017Z,101721.75
2018-10-03T03:02:20.911Z,101720.14
2018-10-03T03:03:25.631Z,101724.63
2018-10-03T03:04:29.861Z,101722.09
2018-10-03T03:05:34.729Z,101721.38
2018-10-03T03:06:38.893Z,101725.48
2018-10-03T03:07:43.724Z,101726.45
2018-10-03T03:08:48.440Z,101723.06
2018-10-03T03:09:52.804Z,101722.34
2018-10-03T03:10:56.952Z,101723.78
2018-10-03T03:12:01.198Z,101716.50
2018-10-03T03:13:07.027Z,101719.79
2018-10-03T03:14:11.394Z,101726.66
2018-10-03T03:15:15.493Z,101728.58
2018-10-03T03:16:19.782Z,101732.82
2018-10-03T03:17:24.977Z,101733.06
2018-10-03T03:18:29.114Z,101735.01
2018-10-03T03:19:34.043Z,101735.11
2018-10-03T03:20:38.560Z,101729.91
2018-10-03T03:21:43.319Z,101727.48
2018-10-03T03:22:47.617Z,101740.06
2018-10-03T03:23:51.983Z,101735.20
2018-10-03T03:24:56.295Z,101734.97
2018-10-03T03:26:01.701Z,101738.59
2018-10-03T03:27:05.925Z,101736.54
2018-10-03T03:28:11.069Z,101739.20
2018-10-03T03:29:15.294Z,101737.16
2018-10-03T03:30:20.036Z,101737.63
2018-10-03T03:31:24.297Z,101743.44
2018-10-03T03:32:28.396Z,101749.49
2018-10-03T03:33:32.680Z,101746.48
2018-10-03T03:34:36.851Z,101740.16
2018-10-03T03:35:41.074Z,101736.16
2018-10-03T03:36:45.184Z,101744.53
2018-10-03T03:37:49.297Z,101748.53
2018-10-03T03:38:53.341Z,101744.30
2018-10-03T03:39:58.612Z,101743.44
2018-10-03T03:41:02.738Z,101741.38
2018-10-03T03:42:07.678Z,101746.34
2018-10-03T03:43:11.853Z,101754.44
2018-10-03T03:44:15.969Z,101753.58
2018-10-03T03:45:21.233Z,101755.05
2018-10-03T03:46:25.653Z,101756.48
2018-10-03T03:47:29.754Z,101753.95
2018-10-03T03:48:33.969Z,101756.72
2018-10-03T03:49:38.201Z,101759.04
2018-10-03T03:50:42.622Z,101751.63
2018-10-03T03:51:46.755Z,101749.94
2018-10-03T03:52:50.817Z,101757.56
2018-10-03T03:53:54.916Z,101759.84
2018-10-03T03:54:59.008Z,101762.99
2018-10-03T03:56:03.110Z,101760.56
2018-10-03T03:57:07.282Z,101770.74
2018-10-03T03:58:11.632Z,101772.20
2018-10-03T03:59:15.832Z,101771.45
2018-10-03T04:00:20.020Z,101770.25
2018-10-03T04:01:24.717Z,101773.88
2018-10-03T04:02:29.862Z,101771.20
2018-10-03T04:03:34.590Z,101774.82
2018-10-03T04:04:39.249Z,101770.96
2018-10-03T04:05:44.465Z,101777.14
2018-10-03T04:06:48.727Z,101772.16
2018-10-03T04:07:54.568Z,101777.48
2018-10-03T04:08:59.465Z,101773.49
2018-10-03T04:10:03.582Z,101779.67
2018-10-03T04:11:07.717Z,101781.25
2018-10-03T04:12:11.922Z,101784.77
2018-10-03T04:13:16.088Z,101785.53
2018-10-03T04:14:20.242Z,101788.06
2018-10-03T04:15:24.590Z,101783.97
2018-10-03T04:16:28.800Z,101788.31
2018-10-03T04:17:33.521Z,101779.27
2018-10-03T04:18:37.838Z,101780.94
2018-10-03T04:19:41.925Z,101781.31
2018-10-03T04:20:46.163Z,101775.03
2018-10-03T04:21:50.345Z,101774.17
2018-10-03T04:22:54.461Z,101772.84
2018-10-03T04:23:58.838Z,101781.69
2018-10-03T04:25:03.648Z,101780.84
2018-10-03T04:26:08.542Z,101791.50
2018-10-03T04:27:12.660Z,101783.60
2018-10-03T04:28:16.965Z,101782.65
2018-10-03T04:29:21.137Z,101784.36
2018-10-03T04:30:26.394Z,101770.66
2018-10-03T04:31:30.820Z,101780.36
2018-10-03T04:32:35.168Z,101779.13
2018-10-03T04:33:39.502Z,101784.45
2018-10-03T04:34:43.766Z,101790.27
2018-10-03T04:35:48.821Z,101789.92
2018-10-03T04:36:53.077Z,101796.92
2018-10-03T04:37:57.220Z,101796.20
2018-10-03T04:39:02.565Z,101797.16
2018-10-03T04:40:07.093Z,101806.11
2018-10-03T04:41:11.778Z,101810.11
2018-10-03T04:42:18.165Z,101808.05
2018-10-03T04:43:23.244Z,101804.53
2018-10-03T04:44:27.397Z,101818.33
2018-10-03T04:45:31.961Z,101822.33
2018-10-03T04:46:36.254Z,101823.31
2018-10-03T04:47:40.550Z,101814.56
2018-10-03T04:48:45.042Z,101824.49
2018-10-03T04:49:49.223Z,101816.13
2018-10-03T04:50:53.346Z,101813.94
2018-10-03T04:51:57.545Z,101811.50
2018-10-03T04:53:02.048Z,101813.69
2018-10-03T04:54:06.201Z,101818.29
2018-10-03T04:55:10.921Z,101822.39
2018-10-03T04:56:16.298Z,101819.00
2018-10-03T04:57:20.428Z,101815.70
2018-10-03T04:58:25.197Z,101822.36
2018-10-03T04:59:29.500Z,101820.30
2018-10-03T05:00:33.754Z,101831.91
2018-10-03T05:01:38.021Z,101835.53
2018-10-03T05:02:43.067Z,101837.47
2018-10-03T05:03:47.327Z,101841.21
2018-10-03T05:04:51.499Z,101837.69
2018-10-03T05:05:55.668Z,101839.59
2018-10-03T05:06:59.977Z,101846.38
2018-10-03T05:08:04.227Z,101849.14
2018-10-03T05:09:09.399Z,101848.80
2018-10-03T05:10:14.232Z,101852.89
2018-10-03T05:11:18.437Z,101853.02
2018-10-03T05:12:22.606Z,101847.69
2018-10-03T05:13:27.497Z,101844.64
2018-10-03T05:14:31.629Z,101841.22
2018-10-03T05:15:37.067Z,101844.87
2018-10-03T05:16:41.975Z,101842.77
2018-10-03T05:17:46.312Z,101852.60
2018-10-03T05:18:50.392Z,101847.84
2018-10-03T05:19:54.598Z,101854.50
2018-10-03T05:20:58.909Z,101856.69
2018-10-03T05:22:03.123Z,101857.64
2018-10-03T05:23:07.796Z,101864.20
2018-10-03T05:24:12.252Z,101863.34
2018-10-03T05:25:16.404Z,101865.54
2018-10-03T05:26:20.735Z,101862.02
2018-10-03T05:27:25.547Z,101858.41
2018-10-03T05:28:29.704Z,101863.73
2018-10-03T05:29:33.975Z,101867.34
2018-10-03T05:30:38.368Z,101867.95
2018-10-03T05:31:42.414Z,101871.94
2018-10-03T05:32:46.624Z,101872.89
2018-10-03T05:33:50.800Z,101881.73
2018-10-03T05:34:55.019Z,101876.16
2018-10-03T05:35:59.336Z,101883.77
2018-10-03T05:37:03.552Z,101876.72
2018-10-03T05:38:08.316Z,101879.77
2018-10-03T05:39:13.424Z,101880.50
2018-10-03T05:40:17.560Z,101875.55
2018-10-03T05:41:21.717Z,101882.94
2018-10-03T05:42:25.830Z,101880.19
2018-10-03T05:43:29.964Z,101879.70
2018-10-03T05:44:34.189Z,101878.25
2018-10-03T05:45:38.452Z,101881.77
2018-10-03T05:46:43.130Z,101882.02
2018-10-03T05:47:47.697Z,101880.22
2018-10-03T05:48:51.868Z,101880.22
2018-10-03T05:49:56.025Z,101879.14
2018-10-03T05:51:00.208Z,101885.70
2018-10-03T05:52:05.705Z,101889.09
2018-10-03T05:53:10.472Z,101893.85
2018-10-03T05:54:14.682Z,101898.19
2018-10-03T05:55:19.032Z,101892.77
2018-10-03T05:56:23.404Z,101891.82
2018-10-03T05:57:28.373Z,101884.66
2018-10-03T05:58:33.125Z,101889.03
2018-10-03T05:59:37.370Z,101889.50
2018-10-03T06:00:42.162Z,101895.31
2018-10-03T06:01:46.368Z,101905.14
2018-10-03T06:02:51.383Z,101900.77
2018-10-03T06:03:56.295Z,101900.38
2018-10-03T06:05:02.527Z,101908.97
2018-10-03T06:06:07.152Z,101901.20
2018-10-03T06:07:12.386Z,101911.95
2018-10-03T06:08:16.723Z,101916.55
2018-10-03T06:09:20.831Z,101920.16
2018-10-03T06:10:24.947Z,101918.10
2018-10-03T06:11:29.464Z,101917.47
2018-10-03T06:12:33.765Z,101923.27
2018-10-03T06:13:37.952Z,101923.27
2018-10-03T06:14:42.925Z,101929.19
2018-10-03T06:15:47.014Z,101933.66
2018-10-03T06:16:51.186Z,101928.91
2018-10-03T06:17:56.499Z,101937.02
2018-10-03T06:19:01.206Z,101936.25
2018-10-03T06:20:06.341Z,101937.11
2018-10-03T06:21:10.992Z,101937.80
2018-10-03T06:22:15.261Z,101927.53
2018-10-03T06:23:19.858Z,101927.27
2018-10-03T06:24:24.925Z,101930.80
2018-10-03T06:25:29.036Z,101933.07
2018-10-03T06:26:33.366Z,101933.55
2018-10-03T06:27:37.566Z,101937.06
2018-10-03T06:28:41.839Z,101944.58
2018-10-03T06:29:46.205Z,101945.05
2018-10-03T06:30:50.392Z,101946.38
2018-10-03T06:31:54.533Z,101950.77
2018-10-03T06:32:58.686Z,101941.53
2018-10-03T06:34:02.915Z,101943.81
2018-10-03T06:35:07.738Z,101947.33
2018-10-03T06:36:12.128Z,101950.98
2018-10-03T06:37:16.173Z,101948.66
2018-10-03T06:38:20.317Z,101955.80
2018-10-03T06:39:24.724Z,101959.91
2018-10-03T06:40:28.964Z,101958.58
2018-10-03T06:41:34.007Z,101958.58
2018-10-03T06:42:38.203Z,101966.09
2018-10-03T06:43:42.373Z,101959.44
2018-10-03T06:44:46.613Z,101968.75
2018-10-03T06:45:50.923Z,101969.61
2018-10-03T06:46:55.226Z,101977.95
2018-10-03T06:47:59.404Z,101978.81
2018-10-03T06:49:05.022Z,101977.09
2018-10-03T06:50:09.165Z,101977.95
2018-10-03T06:51:13.245Z,101977.95
2018-10-03T06:52:18.035Z,101979.28
2018-10-03T06:53:22.373Z,101977.48
2018-10-03T06:54:26.853Z,101984.98
2018-10-03T06:55:31.006Z,101988.51
2018-10-03T06:56:35.385Z,101995.05
2018-10-03T06:57:39.511Z,101996.75
2018-10-03T06:58:43.706Z,101993.62
2018-10-03T06:59:47.847Z,101994.83
2018-10-03T07:00:52.237Z,101992.67
2018-10-03T07:01:56.378Z,101996.16
2018-10-03T07:03:00.737Z,102000.06
2018-10-03T07:04:04.887Z,101999.59
2018-10-03T07:05:09.353Z,102003.97
2018-10-03T07:06:13.430Z,102003.84
2018-10-03T07:07:17.676Z,102006.03
2018-10-03T07:08:22.476Z,102009.42
2018-10-03T07:09:27.570Z,102020.08
2018-10-03T07:10:31.774Z,102010.76
2018-10-03T07:11:36.158Z,102016.08
2018-10-03T07:12:40.336Z,102022.65
2018-10-03T07:13:44.558Z,102035.02
2018-10-03T07:14:48.672Z,102034.16
2018-10-03T07:15:52.976Z,102031.11
2018-10-03T07:16:57.155Z,102036.70
2018-10-03T07:18:01.373Z,102029.69
2018-10-03T07:19:05.526Z,102039.36
2018-10-03T07:20:09.785Z,102036.23
2018-10-03T07:21:14.797Z,102041.94
2018-10-03T07:22:18.977Z,102046.28
2018-10-03T07:23:23.177Z,102047.27
2018-10-03T07:24:27.236Z,102054.66
2018-10-03T07:25:31.388Z,102053.33
2018-10-03T07:26:36.037Z,102053.58
2018-10-03T07:27:41.122Z,102058.44
2018-10-03T07:28:45.266Z,102063.20
2018-10-03T07:29:49.386Z,102058.13
2018-10-03T07:30:53.552Z,102061.53
2018-10-03T07:31:57.956Z,102064.11
2018-10-03T07:33:03.040Z,102063.13
2018-10-03T07:34:07.205Z,102055.52
2018-10-03T07:35:11.349Z,102065.61
2018-10-03T07:36:15.457Z,102066.81
2018-10-03T07:37:19.685Z,102078.71
2018-10-03T07:38:24.004Z,102062.22
2018-10-03T07:39:29.493Z,102071.45
2018-10-03T07:40:33.615Z,102070.50
2018-10-03T07:41:38.683Z,102072.57
2018-10-03T07:42:42.922Z,102069.91
2018-10-03T07:43:53.649Z,102074.28
2018-10-03T07:44:57.674Z,102071.97
2018-10-03T07:46:01.761Z,102078.45
2018-10-03T07:47:05.986Z,102077.85
2018-10-03T07:48:10.249Z,102088.03
2018-10-03T07:49:14.293Z,102086.58
2018-10-03T07:50:18.405Z,102085.62
2018-10-03T07:51:22.448Z,102083.83
2018-10-03T07:52:27.519Z,102088.67
2018-10-03T07:53:31.936Z,102085.03
2018-10-03T07:54:36.230Z,102092.45
2018-10-03T07:55:41.004Z,102092.81
2018-10-03T07:56:45.381Z,102096.71
2018-10-03T07:57:49.532Z,102097.09
2018-10-03T07:58:53.629Z,102102.30
2018-10-03T07:59:57.823Z,102103.07
2018-10-03T08:01:02.502Z,102096.76
2018-10-03T08:02:06.767Z,102101.39
2018-10-03T08:03:13.276Z,102102.16
2018-10-03T08:04:17.410Z,102103.27
2018-10-03T08:05:22.172Z,102106.58
2018-10-03T08:06:26.348Z,102103.70
2018-10-03T08:07:30.439Z,102112.42
2018-10-03T08:08:35.805Z,102112.94
2018-10-03T08:09:39.972Z,102115.67
2018-10-03T08:10:44.065Z,102117.05
2018-10-03T08:11:48.289Z,102112.35
2018-10-03T08:12:53.344Z,102116.41
2018-10-03T08:13:57.665Z,102122.39
2018-10-03T08:15:02.077Z,102121.69
2018-10-03T08:16:06.264Z,102122.80
2018-10-03T08:17:10.516Z,102119.18
2018-10-03T08:18:14.867Z,102120.98
2018-10-03T08:19:19.128Z,102124.13
2018-10-03T08:20:23.951Z,102128.90
2018-10-03T08:21:28.045Z,102126.33
2018-10-03T08:22:32.338Z,102126.45
2018-10-03T08:23:36.851Z,102126.64
2018-10-03T08:24:41.047Z,102124.96
2018-10-03T08:25:45.216Z,102127.72
2018-10-03T08:26:49.281Z,102133.91
2018-10-03T08:27:53.707Z,102136.96
2018-10-03T08:28:58.814Z,102135.98
2018-10-03T08:30:02.998Z,102135.50
2018-10-03T08:31:07.189Z,102135.41
2018-10-03T08:32:11.406Z,102133.85
2018-10-03T08:33:15.614Z,102137.16
2018-10-03T08:34:19.999Z,102132.45
2018-10-03T08:35:24.394Z,102135.85
2018-10-03T08:36:29.121Z,102137.95
2018-10-03T08:37:33.964Z,102137.34
2018-10-03T08:38:38.205Z,102144.65
2018-10-03T08:39:43.457Z,102139.56
2018-10-03T08:40:49.264Z,102144.68
2018-10-03T08:41:53.569Z,102144.07
2018-10-03T08:42:57.723Z,102142.16
2018-10-03T08:44:02.791Z,102155.28
2018-10-03T08:45:07.411Z,102148.00
2018-10-03T08:46:12.118Z,102148.86
2018-10-03T08:47:16.378Z,102154.45
2018-10-03T08:48:20.662Z,102152.16
2018-10-03T08:49:25.523Z,102158.74
2018-10-03T08:50:30.638Z,102155.84
2018-10-03T08:51:34.933Z,102155.97
2018-10-03T08:52:39.795Z,102159.27
2018-10-03T08:53:43.993Z,102158.09
2018-10-03T08:54:48.218Z,102157.00
2018-10-03T08:55:52.530Z,102159.34
2018-10-03T08:56:56.880Z,102162.03
2018-10-03T08:58:01.785Z,102169.24
2018-10-03T08:59:06.166Z,102166.82
2018-10-03T09:00:11.241Z,102164.05
2018-10-03T09:01:16.832Z,102167.92
2018-10-03T09:02:21.222Z,102174.38
2018-10-03T09:03:26.204Z,102170.75
2018-10-03T09:04:30.470Z,102172.70
2018-10-03T09:05:34.589Z,102169.91
2018-10-03T09:06:38.728Z,102173.34
2018-10-03T09:07:43.353Z,102174.06
2018-10-03T09:08:47.586Z,102179.41
2018-10-03T09:09:51.799Z,102177.45
2018-10-03T09:10:56.927Z,102178.80
2018-10-03T09:12:01.622Z,102174.69
2018-10-03T09:13:05.703Z,102183.42
2018-10-03T09:14:09.748Z,102185.29
2018-10-03T09:15:14.719Z,102182.77
2018-10-03T09:16:18.753Z,102186.34
2018-10-03T09:17:23.838Z,102185.63
2018-10-03T09:18:28.173Z,102189.74
2018-10-03T09:19:33.035Z,102185.87
2018-10-03T09:20:37.226Z,102189.66
2018-10-03T09:21:42.633Z,102194.77
2018-10-03T09:22:46.880Z,102192.84
2018-10-03T09:23:52.221Z,102192.95
2018-10-03T09:24:56.363Z,102196.25
2018-10-03T09:26:00.451Z,102196.39
2018-10-03T09:27:04.613Z,102196.16
2018-10-03T09:28:08.939Z,102196.39
2018-10-03T09:29:13.347Z,102194.34
2018-10-03T09:30:18.000Z,102192.66
2018-10-03T09:31:24.414Z,102195.23
2018-10-03T09:32:28.453Z,102195.81
2018-10-03T09:33:32.725Z,102200.45
2018-10-03T09:34:36.832Z,102201.06
2018-10-03T09:35:41.904Z,102203.50
2018-10-03T09:36:46.020Z,102203.26
2018-10-03T09:37:50.467Z,102198.28
2018-10-03T09:38:55.138Z,102201.71
2018-10-03T09:39:59.256Z,102199.03
2018-10-03T09:41:03.415Z,102199.76
2018-10-03T09:42:07.528Z,102202.81
2018-10-03T09:43:13.345Z,102204.86
2018-10-03T09:44:17.492Z,102199.52
2018-10-03T09:45:21.680Z,102204.25
2018-10-03T09:46:25.882Z,102202.80
2018-10-03T09:47:29.982Z,102207.20
2018-10-03T09:48:34.041Z,102212.41
2018-10-03T09:49:38.617Z,102216.42
2018-10-03T09:50:42.688Z,102214.13
2018-10-03T09:51:47.608Z,102214.70
2018-10-03T09:52:51.910Z,102213.02
2018-10-03T09:53:56.098Z,102230.04
2018-10-03T09:55:00.264Z,102213.98
2018-10-03T09:56:04.495Z,102220.57
2018-10-03T09:57:10.184Z,102220.91
2018-10-03T09:58:14.260Z,102220.91
2018-10-03T09:59:18.492Z,102223.11
2018-10-03T10:00:28.043Z,102222.15
2018-10-03T10:01:34.897Z,102229.94
2018-10-03T10:02:40.222Z,102224.20
2018-10-03T10:03:44.339Z,102226.53
2018-10-03T10:04:48.705Z,102231.88
2018-10-03T10:05:54.342Z,102235.89
2018-10-03T10:06:58.580Z,102233.22
2018-10-03T10:08:02.666Z,102240.63
2018-10-03T10:09:10.518Z,102244.06
2018-10-03T10:10:14.719Z,102240.42
2018-10-03T10:11:19.283Z,102231.88
2018-10-03T10:12:24.779Z,102248.55
2018-10-03T10:13:30.018Z,102240.04
2018-10-03T10:14:34.098Z,102237.29
2018-10-03T10:15:38.195Z,102238.97
2018-10-03T10:16:42.314Z,102248.34
2018-10-03T10:17:47.055Z,102244.70
2018-10-03T10:18:51.449Z,102244.59
2018-10-03T10:19:55.593Z,102246.75
2018-10-03T10:20:59.727Z,102249.09
2018-10-03T10:22:03.932Z,102244.70
2018-10-03T10:23:08.028Z,102249.44
2018-10-03T10:24:12.218Z,102247.75
2018-10-03T10:25:16.280Z,102247.75
2018-10-03T10:26:20.393Z,102249.44
2018-10-03T10:27:25.436Z,102252.97
2018-10-03T10:28:29.764Z,102245.08
2018-10-03T10:29:34.063Z,102253.45
2018-10-03T10:30:38.452Z,102253.83
2018-10-03T10:31:42.679Z,102252.48
2018-10-03T10:32:47.615Z,102246.55
2018-10-03T10:33:51.864Z,102253.95
2018-10-03T10:34:56.033Z,102253.71
2018-10-03T10:36:00.478Z,102248.11
2018-10-03T10:37:04.674Z,102240.80
2018-10-03T10:38:08.778Z,102236.91
2018-10-03T10:39:13.097Z,102234.61
2018-10-03T10:40:19.673Z,102235.70
2018-10-03T10:41:23.833Z,102235.70
2018-10-03T10:42:28.015Z,102235.59
2018-10-03T10:43:32.198Z,102242.39
2018-10-03T10:44:36.301Z,102245.17
2018-10-03T10:45:40.479Z,102244.94
2018-10-03T10:46:45.268Z,102240.58
2018-10-03T10:47:50.085Z,102247.48
2018-10-03T10:48:55.154Z,102250.93
2018-10-03T10:49:59.365Z,102249.70
2018-10-03T10:51:03.540Z,102246.64
2018-10-03T10:52:07.732Z,102244.82
2018-10-03T10:53:12.980Z,102250.31
2018-10-03T10:54:17.060Z,102256.63
2018-10-03T10:55:24.130Z,102247.88
2018-10-03T10:56:29.429Z,102250.43
2018-10-03T10:57:33.700Z,102257.13
2018-10-03T10:58:37.878Z,102256.39
2018-10-03T10:59:42.150Z,102261.37
2018-10-03T11:00:46.215Z,102260.64
2018-10-03T11:01:50.454Z,102258.58
2018-10-03T11:02:54.638Z,102254.31
2018-10-03T11:03:58.787Z,102259.80
2018-10-03T11:05:02.924Z,102265.87
2018-10-03T11:06:08.101Z,102254.57
2018-10-03T11:07:12.157Z,102256.52
2018-10-03T11:08:16.715Z,102266.50
2018-10-03T11:09:20.882Z,102262.97
2018-10-03T11:10:25.022Z,102266.98
2018-10-03T11:11:29.198Z,102269.77
2018-10-03T11:12:33.311Z,102276.12
2018-10-03T11:13:37.406Z,102276.34
2018-10-03T11:14:42.564Z,102280.98
2018-10-03T11:15:47.315Z,102278.54
2018-10-03T11:16:51.523Z,102282.32
2018-10-03T11:17:56.463Z,102287.54
2018-10-03T11:19:00.814Z,102287.54
2018-10-03T11:20:06.084Z,102282.94
2018-10-03T11:21:10.263Z,102281.59
2018-10-03T11:22:15.596Z,102282.31
2018-10-03T11:23:19.812Z,102287.42
2018-10-03T11:24:25.148Z,102285.60
2018-10-03T11:25:29.912Z,102289.52
2018-10-03T11:26:34.177Z,102279.14
2018-10-03T11:27:38.918Z,102287.93
2018-10-03T11:28:43.644Z,102282.05
2018-10-03T11:29:47.966Z,102281.95
2018-10-03T11:30:53.551Z,102279.64
2018-10-03T11:31:57.717Z,102279.64
2018-10-03T11:33:02.531Z,102274.28
2018-10-03T11:34:07.813Z,102274.15
2018-10-03T11:35:12.102Z,102271.70
2018-10-03T11:36:16.297Z,102274.16
2018-10-03T11:37:20.601Z,102276.22
2018-10-03T11:38:25.083Z,102271.47
2018-10-03T11:39:29.363Z,102274.38
2018-10-03T11:40:33.432Z,102269.41
2018-10-03T11:41:38.856Z,102272.42
2018-10-03T11:42:45.458Z,102271.83
2018-10-03T11:43:49.583Z,102271.83
2018-10-03T11:44:53.744Z,102270.48
2018-10-03T11:45:58.115Z,102267.92
2018-10-03T11:47:02.296Z,102272.56
2018-10-03T11:48:07.420Z,102279.03
2018-10-03T11:49:13.348Z,102279.62
2018-10-03T11:50:17.598Z,102278.91
2018-10-03T11:51:22.405Z,102281.69
2018-10-03T11:52:26.540Z,102281.83
2018-10-03T11:53:31.165Z,102280.12
2018-10-03T11:54:35.251Z,102278.54
2018-10-03T11:55:39.432Z,102281.33
2018-10-03T11:56:43.701Z,102280.98
2018-10-03T11:57:48.061Z,102281.09
2018-10-03T11:58:52.867Z,102279.27
2018-10-03T11:59:56.995Z,102273.06
2018-10-03T12:01:01.151Z,102272.95
2018-10-03T12:02:05.917Z,102276.83
2018-10-03T12:03:12.154Z,102275.00
2018-10-03T12:04:16.854Z,102270.02
2018-10-03T12:05:21.873Z,102270.73
2018-10-03T12:06:26.811Z,102268.81
2018-10-03T12:07:30.892Z,102278.28
2018-10-03T12:08:35.063Z,102270.51
2018-10-03T12:09:39.196Z,102276.09
2018-10-03T12:10:43.918Z,102270.59
2018-10-03T12:11:48.215Z,102267.58
2018-10-03T12:12:52.438Z,102260.99
2018-10-03T12:13:56.607Z,102269.03
2018-10-03T12:15:01.719Z,102264.05
2018-10-03T12:16:05.859Z,102264.05